aviador You're here:

LFGA Decoded Metar

COLMAR in FRANCE
Report Time2018-07-22 07:00:00
UTC Time2018-07-22 07:12:41
Flight Rules vfr VFR
Wind180° at 04 kt
W.Decomp.*RWY 19: 3.9 kt HW 0.8 kt LCW
W.Rank180° ranks 1
Current wind is below 180° avg. (7.6)
Visibility9999 m
Phenomena:N/A
Clouds:N/A
Expected CloudBase > 2,000 ft AGL from Temp-Dew spread
CeilingNone
Temp20°C
Dew Point15°C (73% RH)
QNH1015 hPa
Raw Report
METAR LFGA 220700Z AUTO 18004KT 160V220 CAVOK 20/15 Q1015=

Extra information for LFGA:More info

Metar Taf Metar & Taf Last 4 Metars F.Rules Stats Wind Profile Meteogram Temp Stats Airport Information Weather charts Add Link Nearby VenuesMetar ALERT Operation Metar Decoded Social comments